createdAt,value
2023-03-02T00:01:50.505Z,28.08
2023-03-02T00:04:28.376Z,26.77
2023-03-02T00:06:58.263Z,29.67
2023-03-02T00:09:25.491Z,29.33
2023-03-02T00:11:52.810Z,28.85
2023-03-02T00:14:20.091Z,28.40
2023-03-02T00:16:47.341Z,28.58
2023-03-02T00:19:14.708Z,28.98
2023-03-02T00:21:42.014Z,29.45
2023-03-02T00:24:09.831Z,27.92
2023-03-02T00:26:37.481Z,31.15
2023-03-02T00:29:04.862Z,29.52
2023-03-02T00:31:32.304Z,31.42
2023-03-02T00:33:59.781Z,32.28
2023-03-02T00:36:27.077Z,30.92
2023-03-02T00:38:54.334Z,32.75
2023-03-02T00:41:22.396Z,31.73
2023-03-02T00:43:50.125Z,31.42
2023-03-02T00:46:18.850Z,32.25
2023-03-02T00:48:46.348Z,24.77
2023-03-02T00:51:14.175Z,30.73
2023-03-02T00:53:41.937Z,32.60
2023-03-02T00:56:09.650Z,30.48
2023-03-02T00:58:40.567Z,33.25
2023-03-02T01:01:13.295Z,26.60
2023-03-02T01:03:45.257Z,30.45
2023-03-02T01:06:19.160Z,31.70
2023-03-02T01:08:46.788Z,34.10
2023-03-02T01:11:14.953Z,33.42
2023-03-02T01:13:42.467Z,31.60
2023-03-02T01:16:09.753Z,29.52
2023-03-02T01:18:38.804Z,31.25
2023-03-02T01:23:33.678Z,30.35
2023-03-02T01:26:00.953Z,30.52
2023-03-02T01:28:28.384Z,30.25
2023-03-02T01:30:55.726Z,32.53
2023-03-02T01:33:23.718Z,28.70
2023-03-02T01:35:51.061Z,31.92
2023-03-02T01:38:18.401Z,28.73
2023-03-02T01:40:45.751Z,31.17
2023-03-02T01:43:14.594Z,31.38
2023-03-02T01:45:45.623Z,28.63
2023-03-02T01:48:17.655Z,29.02
2023-03-02T01:53:13.174Z,31.33
2023-03-02T01:55:40.994Z,29.88
2023-03-02T01:58:08.325Z,28.98
2023-03-02T02:00:37.541Z,30.77
2023-03-02T02:03:21.072Z,32.08
2023-03-02T02:06:11.669Z,30.05
2023-03-02T02:08:39.482Z,27.63
2023-03-02T02:11:07.398Z,28.77
2023-03-02T02:13:34.721Z,30.35
2023-03-02T02:16:02.221Z,31.98
2023-03-02T02:18:29.761Z,30.98
2023-03-02T02:20:57.609Z,27.05
2023-03-02T02:23:27.449Z,29.48
2023-03-02T02:26:01.980Z,29.60
2023-03-02T02:28:35.036Z,26.75
2023-03-02T02:31:08.452Z,28.15
2023-03-02T02:33:37.380Z,28.20
2023-03-02T02:36:09.259Z,29.85
2023-03-02T02:38:40.727Z,27.00
2023-03-02T02:41:12.222Z,26.52
2023-03-02T02:43:39.644Z,28.08
2023-03-02T02:46:07.172Z,29.10
2023-03-02T02:48:35.409Z,30.48
2023-03-02T02:51:03.193Z,29.73
2023-03-02T02:53:50.814Z,28.83
2023-03-02T02:56:18.277Z,29.95
2023-03-02T02:58:51.078Z,26.00
2023-03-02T03:01:20.083Z,28.90
2023-03-02T03:03:51.916Z,29.38
2023-03-02T03:06:21.077Z,28.63
2023-03-02T03:08:53.817Z,28.05
2023-03-02T03:11:31.223Z,26.63
2023-03-02T03:14:01.520Z,29.70
2023-03-02T03:16:30.380Z,27.13
2023-03-02T03:18:59.821Z,29.40
2023-03-02T03:23:54.480Z,27.70
2023-03-02T03:26:22.091Z,29.05
2023-03-02T03:28:49.994Z,28.02
2023-03-02T03:31:17.768Z,27.65
2023-03-02T03:33:45.098Z,25.02
2023-03-02T03:36:12.712Z,28.13
2023-03-02T03:38:40.223Z,27.23
2023-03-02T03:41:07.639Z,30.73
2023-03-02T03:43:35.294Z,28.08
2023-03-02T03:46:03.330Z,28.83
2023-03-02T03:48:30.692Z,26.52
2023-03-02T03:50:59.514Z,28.77
2023-03-02T03:53:27.455Z,26.95
2023-03-02T03:55:56.911Z,29.35
2023-03-02T04:00:52.439Z,25.85
2023-03-02T04:03:21.212Z,25.55
2023-03-02T04:05:49.115Z,25.75
2023-03-02T04:08:16.577Z,27.27
2023-03-02T04:10:44.924Z,27.88
2023-03-02T04:13:12.606Z,27.15
2023-03-02T04:15:41.950Z,26.08
2023-03-02T04:18:09.580Z,27.30
2023-03-02T04:20:37.642Z,27.73
2023-03-02T04:23:05.472Z,25.20
2023-03-02T04:25:32.805Z,25.27
2023-03-02T04:28:08.670Z,24.73
2023-03-02T04:30:38.709Z,24.88
2023-03-02T04:33:06.081Z,24.92
2023-03-02T04:35:34.757Z,27.25
2023-03-02T04:38:02.957Z,24.98
2023-03-02T04:40:30.520Z,26.02
2023-03-02T04:42:57.765Z,25.10
2023-03-02T04:45:24.973Z,24.55
2023-03-02T04:47:52.324Z,24.50
2023-03-02T04:50:19.591Z,24.25
2023-03-02T04:52:46.915Z,24.73
2023-03-02T04:55:22.062Z,28.05
2023-03-02T04:57:49.346Z,24.75
2023-03-02T05:00:17.538Z,26.35
2023-03-02T05:02:44.950Z,24.42
2023-03-02T05:05:19.660Z,26.02
2023-03-02T05:07:46.969Z,26.85
2023-03-02T05:10:15.302Z,25.40
2023-03-02T05:12:55.200Z,24.52
2023-03-02T05:15:23.223Z,26.98
2023-03-02T05:17:50.474Z,22.63
2023-03-02T05:20:18.105Z,24.27
2023-03-02T05:22:45.400Z,24.13
2023-03-02T05:25:12.682Z,25.77
2023-03-02T05:27:39.972Z,26.73
2023-03-02T05:30:07.688Z,24.92
2023-03-02T05:32:34.947Z,24.70
2023-03-02T05:35:02.156Z,26.83
2023-03-02T05:37:29.420Z,28.02
2023-03-02T05:39:56.878Z,25.25
2023-03-02T05:42:24.105Z,23.73
2023-03-02T05:44:51.438Z,23.70
2023-03-02T05:47:18.658Z,26.50
2023-03-02T05:49:45.928Z,23.90
2023-03-02T05:52:13.125Z,24.17
2023-03-02T05:54:40.876Z,24.08
2023-03-02T05:57:08.096Z,25.30
2023-03-02T05:59:35.458Z,25.17
2023-03-02T06:02:03.226Z,25.15
2023-03-02T06:04:30.703Z,24.88
2023-03-02T06:06:58.055Z,24.17
2023-03-02T06:09:25.302Z,25.70
2023-03-02T06:11:52.517Z,23.48
2023-03-02T06:14:19.768Z,24.80
2023-03-02T06:16:48.839Z,26.90
2023-03-02T06:19:16.154Z,22.98
2023-03-02T06:21:43.453Z,24.80
2023-03-02T06:24:10.711Z,25.98
2023-03-02T06:26:37.934Z,25.90
2023-03-02T06:29:05.572Z,23.27
2023-03-02T06:31:32.975Z,24.83
2023-03-02T06:34:00.200Z,27.75
2023-03-02T06:36:27.834Z,29.58
2023-03-02T06:38:55.202Z,29.13
2023-03-02T06:41:22.843Z,29.02
2023-03-02T06:43:50.034Z,24.85
2023-03-02T06:46:17.441Z,29.35
2023-03-02T06:48:44.660Z,25.52
2023-03-02T06:51:12.740Z,27.20
2023-03-02T06:53:40.019Z,24.92
2023-03-02T06:56:07.680Z,26.92
2023-03-02T06:58:35.411Z,28.23
2023-03-02T07:01:02.772Z,26.67
2023-03-02T07:03:30.042Z,25.02
2023-03-02T07:05:57.294Z,29.13
2023-03-02T07:08:24.570Z,28.50
2023-03-02T07:10:51.814Z,31.13
2023-03-02T07:13:19.081Z,33.45
2023-03-02T07:15:46.355Z,30.13
2023-03-02T07:18:13.558Z,30.75
2023-03-02T07:20:40.810Z,31.65
2023-03-02T07:23:08.063Z,30.88
2023-03-02T07:25:36.980Z,33.00
2023-03-02T07:28:04.444Z,33.85
2023-03-02T07:30:31.937Z,30.23
2023-03-02T07:32:59.424Z,30.58
2023-03-02T07:35:26.727Z,34.97
2023-03-02T07:37:54.036Z,32.78
2023-03-02T07:40:21.329Z,35.58
2023-03-02T07:42:48.553Z,33.83
2023-03-02T07:45:16.976Z,36.45
2023-03-02T07:47:44.303Z,37.33
2023-03-02T07:50:11.913Z,33.83
2023-03-02T07:52:39.675Z,39.15
2023-03-02T07:55:06.999Z,37.42
2023-03-02T07:57:34.309Z,38.38
2023-03-02T08:00:01.565Z,34.15
2023-03-02T08:02:39.913Z,40.53
2023-03-02T08:05:07.441Z,37.23
2023-03-02T08:07:34.697Z,37.90
2023-03-02T08:10:01.941Z,37.90
2023-03-02T08:12:29.612Z,37.85
2023-03-02T08:14:57.032Z,42.80
2023-03-02T08:17:24.350Z,40.70
2023-03-02T08:19:51.672Z,37.00
2023-03-02T08:22:18.917Z,36.45
2023-03-02T08:24:46.219Z,37.97
2023-03-02T08:27:14.412Z,34.88
2023-03-02T08:29:42.026Z,38.08
2023-03-02T08:32:09.430Z,35.42
2023-03-02T08:34:36.990Z,33.95
2023-03-02T08:37:04.289Z,30.02
2023-03-02T08:39:32.172Z,25.80
2023-03-02T08:41:59.946Z,25.17
2023-03-02T08:44:27.227Z,21.23
2023-03-02T08:46:57.871Z,22.25
2023-03-02T08:49:25.157Z,19.05
2023-03-02T08:51:53.736Z,18.92
2023-03-02T08:54:21.620Z,17.88
2023-03-02T08:56:49.202Z,17.90
2023-03-02T08:59:16.883Z,20.48
2023-03-02T09:01:44.169Z,21.38
2023-03-02T09:04:11.958Z,19.50
2023-03-02T09:06:40.689Z,19.40
2023-03-02T09:09:08.826Z,16.10
2023-03-02T09:11:36.225Z,18.30
2023-03-02T09:14:03.559Z,17.40
2023-03-02T09:16:31.123Z,17.20
2023-03-02T09:18:58.358Z,16.80
2023-03-02T09:21:25.702Z,15.57
2023-03-02T09:23:55.751Z,15.27
2023-03-02T09:26:23.129Z,17.80
2023-03-02T09:28:50.402Z,16.10
2023-03-02T09:31:17.697Z,17.42
2023-03-02T09:33:44.979Z,16.48
2023-03-02T09:36:13.889Z,16.38
2023-03-02T09:38:41.191Z,15.77
2023-03-02T09:41:20.810Z,15.98
2023-03-02T09:44:06.469Z,17.63
2023-03-02T09:46:39.964Z,15.32
2023-03-02T09:49:13.020Z,16.98
2023-03-02T09:51:43.075Z,17.13
2023-03-02T09:54:20.513Z,16.50
2023-03-02T09:56:49.680Z,14.77
2023-03-02T09:59:35.844Z,15.98
2023-03-02T10:02:21.962Z,16.63
2023-03-02T10:04:51.550Z,16.52
2023-03-02T10:07:26.356Z,16.48
2023-03-02T10:09:53.958Z,17.77
2023-03-02T10:12:21.218Z,15.50
2023-03-02T10:14:59.776Z,16.83
2023-03-02T10:17:36.099Z,15.02
2023-03-02T10:20:13.360Z,17.33
2023-03-02T10:22:43.281Z,16.38
2023-03-02T10:25:29.113Z,17.85
2023-03-02T10:28:02.615Z,16.88
2023-03-02T10:30:30.966Z,16.13
2023-03-02T10:33:01.508Z,16.60
2023-03-02T10:35:29.675Z,17.25
2023-03-02T10:38:23.206Z,17.10
2023-03-02T10:40:50.509Z,16.40
2023-03-02T10:43:19.783Z,16.83
2023-03-02T10:48:15.291Z,15.90
2023-03-02T10:50:43.755Z,16.13
2023-03-02T10:53:18.481Z,15.07
2023-03-02T10:55:50.702Z,15.85
2023-03-02T10:58:27.254Z,14.38
2023-03-02T11:00:58.448Z,15.23
2023-03-02T11:03:25.951Z,15.25
2023-03-02T11:05:53.424Z,17.50
2023-03-02T11:08:22.751Z,17.45
2023-03-02T11:11:01.702Z,15.25
2023-03-02T11:13:32.216Z,16.00
2023-03-02T11:16:01.519Z,17.90
2023-03-02T11:20:59.747Z,15.65
2023-03-02T11:23:32.925Z,16.05
2023-03-02T11:26:02.964Z,16.05
2023-03-02T11:28:49.071Z,15.15
2023-03-02T11:31:19.489Z,15.75
2023-03-02T11:34:16.792Z,14.88
2023-03-02T11:36:57.115Z,14.35
2023-03-02T11:39:28.719Z,18.05
2023-03-02T11:41:55.959Z,16.45
2023-03-02T11:44:24.818Z,16.45
2023-03-02T11:46:54.190Z,16.33
2023-03-02T11:49:47.852Z,15.32
2023-03-02T11:52:20.864Z,17.00
2023-03-02T11:55:00.508Z,18.35
2023-03-02T11:57:37.452Z,16.58
2023-03-02T12:00:11.750Z,15.68
2023-03-02T12:02:39.699Z,16.80
2023-03-02T12:05:08.678Z,16.60
2023-03-02T12:07:35.947Z,18.10
2023-03-02T12:10:08.467Z,16.85
2023-03-02T12:12:35.801Z,17.05
2023-03-02T12:15:03.410Z,17.20
2023-03-02T12:17:32.883Z,16.95
2023-03-02T12:20:26.951Z,15.55
2023-03-02T12:22:54.601Z,17.42
2023-03-02T12:25:21.958Z,17.52
2023-03-02T12:27:50.390Z,18.25
2023-03-02T12:30:23.510Z,18.50
2023-03-02T12:33:18.581Z,18.08
2023-03-02T12:35:46.751Z,18.10
2023-03-02T12:38:26.231Z,17.27
2023-03-02T12:41:12.966Z,17.13
2023-03-02T12:43:48.271Z,19.08
2023-03-02T12:46:21.749Z,18.30
2023-03-02T12:49:09.215Z,17.48
2023-03-02T12:51:52.685Z,16.88
2023-03-02T12:54:21.174Z,19.17
2023-03-02T12:56:48.946Z,16.42
2023-03-02T12:59:26.392Z,16.92
2023-03-02T13:02:04.052Z,16.90
2023-03-02T13:04:31.381Z,18.25
2023-03-02T13:06:58.733Z,17.08
2023-03-02T13:09:25.984Z,16.30
2023-03-02T13:11:55.160Z,17.33
2023-03-02T13:16:57.236Z,16.33
2023-03-02T13:19:25.161Z,15.35
2023-03-02T13:21:53.164Z,17.02
2023-03-02T13:24:34.525Z,17.35
2023-03-02T13:27:07.283Z,15.18
2023-03-02T13:29:35.426Z,16.27
2023-03-02T13:34:31.379Z,16.73
2023-03-02T13:36:59.101Z,17.42
2023-03-02T13:39:27.828Z,16.75
2023-03-02T13:42:02.851Z,16.23
2023-03-02T13:44:34.328Z,16.60
2023-03-02T13:47:02.394Z,14.40
2023-03-02T13:49:30.788Z,18.92
2023-03-02T13:52:08.593Z,16.83
2023-03-02T13:54:37.400Z,17.85
2023-03-02T13:57:05.553Z,16.83
2023-03-02T13:59:36.695Z,15.50
2023-03-02T14:02:04.093Z,19.73
2023-03-02T14:04:31.356Z,16.88
2023-03-02T14:06:58.677Z,15.98
2023-03-02T14:09:27.301Z,16.80
2023-03-02T14:11:55.995Z,17.13
2023-03-02T14:14:24.761Z,16.60
2023-03-02T14:16:52.442Z,16.92
2023-03-02T14:19:20.209Z,18.65
2023-03-02T14:21:47.979Z,15.35
2023-03-02T14:24:15.366Z,17.75
2023-03-02T14:26:44.083Z,17.83
2023-03-02T14:29:22.676Z,17.98
2023-03-02T14:31:50.053Z,18.67
2023-03-02T14:34:17.690Z,17.10
2023-03-02T14:36:46.496Z,17.75
2023-03-02T14:39:22.059Z,16.95
2023-03-02T14:41:53.822Z,16.95
2023-03-02T14:44:22.292Z,16.90
2023-03-02T14:46:49.750Z,16.75
2023-03-02T14:49:16.989Z,16.58
2023-03-02T14:51:46.836Z,16.02
2023-03-02T14:54:16.716Z,16.45
2023-03-02T14:56:44.223Z,16.77
2023-03-02T14:59:14.291Z,16.60
2023-03-02T15:01:44.557Z,15.55
2023-03-02T15:04:11.984Z,16.45
2023-03-02T15:06:40.187Z,18.20
2023-03-02T15:09:08.393Z,17.40
2023-03-02T15:11:35.937Z,17.23
2023-03-02T15:14:03.288Z,17.95
2023-03-02T15:16:30.565Z,19.08
2023-03-02T15:18:59.007Z,18.63
2023-03-02T15:21:26.389Z,18.77
2023-03-02T15:23:53.676Z,18.42
2023-03-02T15:26:20.984Z,18.52
2023-03-02T15:28:50.731Z,19.02
2023-03-02T15:31:18.651Z,19.52
2023-03-02T15:33:46.283Z,17.63
2023-03-02T15:36:14.152Z,17.83
2023-03-02T15:38:41.464Z,18.63
2023-03-02T15:41:11.249Z,19.65
2023-03-02T15:43:38.567Z,19.85
2023-03-02T15:46:06.316Z,18.95
2023-03-02T15:48:33.587Z,18.83
2023-03-02T15:51:01.561Z,18.48
2023-03-02T15:53:29.425Z,17.33
2023-03-02T15:55:57.079Z,20.02
2023-03-02T15:58:24.359Z,17.85
2023-03-02T16:00:56.908Z,18.48
2023-03-02T16:03:24.885Z,18.67
2023-03-02T16:05:52.158Z,19.38
2023-03-02T16:08:19.401Z,16.88
2023-03-02T16:10:55.941Z,18.17
2023-03-02T16:13:23.168Z,18.50
2023-03-02T16:15:50.348Z,19.77
2023-03-02T16:18:17.671Z,16.58
2023-03-02T16:20:45.050Z,17.38
2023-03-02T16:23:12.604Z,16.80
2023-03-02T16:25:41.055Z,17.27
2023-03-02T16:28:08.312Z,17.90
2023-03-02T16:30:36.068Z,15.50
2023-03-02T16:33:04.344Z,15.77
2023-03-02T16:35:32.487Z,14.40
2023-03-02T16:38:00.260Z,15.77
2023-03-02T16:40:27.673Z,17.83
2023-03-02T16:42:54.975Z,16.05
2023-03-02T16:45:22.989Z,13.77
2023-03-02T16:47:50.640Z,17.27
2023-03-02T16:50:18.062Z,14.38
2023-03-02T16:52:45.515Z,15.38
2023-03-02T16:55:14.560Z,15.48
2023-03-02T16:57:42.277Z,13.88
2023-03-02T17:00:10.696Z,12.43
2023-03-02T17:02:37.994Z,13.73
2023-03-02T17:05:05.327Z,14.32
2023-03-02T17:07:32.580Z,12.48
2023-03-02T17:09:59.790Z,12.27
2023-03-02T17:12:27.193Z,12.18
2023-03-02T17:14:54.639Z,13.32
2023-03-02T17:17:22.262Z,14.30
2023-03-02T17:19:49.665Z,14.23
2023-03-02T17:22:17.392Z,14.07
2023-03-02T17:24:44.672Z,14.13
2023-03-02T17:27:24.195Z,13.25
2023-03-02T17:29:52.718Z,14.63
2023-03-02T17:32:19.973Z,14.25
2023-03-02T17:34:47.567Z,13.00
2023-03-02T17:37:14.876Z,13.70
2023-03-02T17:39:42.107Z,14.50
2023-03-02T17:42:09.536Z,14.15
2023-03-02T17:44:40.316Z,13.25
2023-03-02T17:47:08.301Z,14.88
2023-03-02T17:49:39.667Z,14.88
2023-03-02T17:52:07.290Z,15.70
2023-03-02T17:54:34.657Z,14.32
2023-03-02T17:57:01.896Z,14.98
2023-03-02T17:59:29.475Z,13.93
2023-03-02T18:01:57.005Z,15.05
2023-03-02T18:04:24.433Z,15.25
2023-03-02T18:06:54.002Z,13.73
2023-03-02T18:09:21.408Z,13.60
2023-03-02T18:11:48.725Z,13.25
2023-03-02T18:14:17.247Z,13.95
2023-03-02T18:16:44.518Z,13.50
2023-03-02T18:19:11.847Z,13.50
2023-03-02T18:21:41.700Z,12.82
2023-03-02T18:24:09.597Z,13.50
2023-03-02T18:26:37.147Z,16.05
2023-03-02T18:29:05.125Z,13.85
2023-03-02T18:31:34.088Z,13.02
2023-03-02T18:34:01.870Z,14.55
2023-03-02T18:36:29.350Z,13.90
2023-03-02T18:38:56.646Z,13.85
2023-03-02T18:41:24.423Z,14.07
2023-03-02T18:43:52.209Z,14.25
2023-03-02T18:46:23.627Z,14.75
2023-03-02T18:48:51.034Z,15.32
2023-03-02T18:51:18.912Z,16.30
2023-03-02T18:53:46.932Z,14.60
2023-03-02T18:56:14.274Z,15.02
2023-03-02T18:58:42.077Z,14.43
2023-03-02T19:01:09.810Z,13.63
2023-03-02T19:03:38.641Z,13.27
2023-03-02T19:06:07.347Z,13.40
2023-03-02T19:08:37.750Z,14.93
2023-03-02T19:11:05.897Z,14.13
2023-03-02T19:13:33.196Z,15.32
2023-03-02T19:16:01.950Z,14.45
2023-03-02T19:18:29.934Z,12.77
2023-03-02T19:20:57.806Z,15.52
2023-03-02T19:23:25.181Z,14.55
2023-03-02T19:25:52.688Z,13.00
2023-03-02T19:28:21.657Z,13.63
2023-03-02T19:30:49.085Z,14.23
2023-03-02T19:33:16.318Z,14.60
2023-03-02T19:35:43.773Z,14.88
2023-03-02T19:38:11.104Z,14.45
2023-03-02T19:40:38.572Z,14.18
2023-03-02T19:43:06.059Z,13.88
2023-03-02T19:45:35.579Z,14.02
2023-03-02T19:48:03.364Z,15.50
2023-03-02T19:50:30.843Z,12.18
2023-03-02T19:52:58.666Z,11.88
2023-03-02T19:55:26.410Z,11.88
2023-03-02T19:58:00.059Z,11.95
2023-03-02T20:00:28.752Z,11.13
2023-03-02T20:02:56.313Z,10.95
2023-03-02T20:05:26.040Z,12.43
2023-03-02T20:07:53.507Z,13.75
2023-03-02T20:10:46.782Z,11.90
2023-03-02T20:13:14.063Z,13.57
2023-03-02T20:15:44.396Z,11.50
2023-03-02T20:18:12.950Z,10.88
2023-03-02T20:20:41.483Z,9.82
2023-03-02T20:23:08.797Z,10.88
2023-03-02T20:25:36.597Z,15.10
2023-03-02T20:28:05.663Z,10.73
2023-03-02T20:30:42.414Z,11.95
2023-03-02T20:33:10.190Z,11.43
2023-03-02T20:35:41.008Z,11.45
2023-03-02T20:38:17.417Z,11.35
2023-03-02T20:40:45.724Z,12.15
2023-03-02T20:43:13.276Z,9.73
2023-03-02T20:45:41.186Z,10.40
2023-03-02T20:48:08.432Z,9.82
2023-03-02T20:50:36.206Z,9.50
2023-03-02T20:53:05.324Z,10.90
2023-03-02T20:55:32.637Z,9.70
2023-03-02T20:58:01.112Z,9.52
2023-03-02T21:00:29.244Z,8.53
2023-03-02T21:02:57.215Z,10.77
2023-03-02T21:05:25.009Z,8.50
2023-03-02T21:07:52.233Z,8.27
2023-03-02T21:10:30.037Z,7.25
2023-03-02T21:12:57.468Z,7.85
2023-03-02T21:15:26.962Z,8.48
2023-03-02T21:20:23.406Z,7.80
2023-03-02T21:22:50.646Z,7.13
2023-03-02T21:25:18.107Z,7.38
2023-03-02T21:27:45.536Z,7.50
2023-03-02T21:30:17.772Z,7.40
2023-03-02T21:32:45.655Z,7.25
2023-03-02T21:35:17.703Z,7.45
2023-03-02T21:37:45.115Z,7.10
2023-03-02T21:40:20.654Z,6.85
2023-03-02T21:42:48.271Z,7.43
2023-03-02T21:45:15.614Z,7.30
2023-03-02T21:47:43.249Z,7.25
2023-03-02T21:50:13.131Z,6.90
2023-03-02T21:52:40.557Z,7.47
2023-03-02T21:55:08.581Z,7.05
2023-03-02T21:57:35.917Z,7.15
2023-03-02T22:00:04.418Z,6.45
2023-03-02T22:02:32.211Z,8.00
2023-03-02T22:04:59.777Z,7.88
2023-03-02T22:07:27.039Z,7.43
2023-03-02T22:09:54.358Z,7.97
2023-03-02T22:12:23.009Z,6.85
2023-03-02T22:14:50.496Z,7.55
2023-03-02T22:17:19.396Z,8.52
2023-03-02T22:19:47.594Z,7.78
2023-03-02T22:22:33.155Z,6.90
2023-03-02T22:25:00.467Z,7.82
2023-03-02T22:27:28.986Z,7.25
2023-03-02T22:29:58.991Z,9.25
2023-03-02T22:32:27.995Z,9.20
2023-03-02T22:34:59.682Z,10.05
2023-03-02T22:37:30.505Z,9.07
2023-03-02T22:39:58.742Z,8.55
2023-03-02T22:42:27.091Z,9.95
2023-03-02T22:45:14.672Z,8.35
2023-03-02T22:47:42.590Z,8.02
2023-03-02T22:50:24.557Z,8.48
2023-03-02T22:52:52.233Z,9.38
2023-03-02T22:55:30.780Z,8.48
2023-03-02T22:57:58.074Z,8.93
2023-03-02T23:00:35.013Z,10.00
2023-03-02T23:03:02.303Z,10.13
2023-03-02T23:05:31.016Z,10.18
2023-03-02T23:08:16.980Z,10.35
2023-03-02T23:10:44.591Z,11.07
2023-03-02T23:13:13.213Z,11.18
2023-03-02T23:15:41.546Z,8.73
2023-03-02T23:18:19.222Z,8.18
2023-03-02T23:20:46.529Z,10.73
2023-03-02T23:23:13.750Z,11.57
2023-03-02T23:25:41.065Z,11.82
2023-03-02T23:28:08.264Z,12.27
2023-03-02T23:30:35.588Z,12.32
2023-03-02T23:33:02.915Z,11.80
2023-03-02T23:35:30.290Z,12.43
2023-03-02T23:37:58.091Z,13.82
2023-03-02T23:40:25.612Z,14.45
2023-03-02T23:42:52.871Z,13.70
2023-03-02T23:45:20.117Z,14.23
2023-03-02T23:47:47.517Z,13.32
2023-03-02T23:50:14.791Z,12.63
2023-03-02T23:52:42.000Z,14.82
2023-03-02T23:55:09.758Z,14.70
2023-03-02T23:57:37.042Z,11.95
